sensor_id;sensor_type;location;lat;lon;timestamp;P1;durP1;ratioP1;P2;durP2;ratioP2
69417;SDS011;56610;48.872;2.400;2023-07-20T00:01:40;3.03;;;1.80;;
69417;SDS011;56610;48.872;2.400;2023-07-20T00:04:09;5.93;;;2.38;;
69417;SDS011;56610;48.872;2.400;2023-07-20T00:06:35;2.80;;;1.75;;
69417;SDS011;56610;48.872;2.400;2023-07-20T00:09:06;3.83;;;1.52;;
69417;SDS011;56610;48.872;2.400;2023-07-20T00:11:35;4.47;;;1.70;;
69417;SDS011;56610;48.872;2.400;2023-07-20T00:14:02;3.25;;;1.50;;
69417;SDS011;56610;48.872;2.400;2023-07-20T00:16:29;3.60;;;1.77;;
69417;SDS011;56610;48.872;2.400;2023-07-20T00:18:54;3.95;;;1.75;;
69417;SDS011;56610;48.872;2.400;2023-07-20T00:21:20;2.95;;;1.75;;
69417;SDS011;56610;48.872;2.400;2023-07-20T00:23:45;2.70;;;1.67;;
69417;SDS011;56610;48.872;2.400;2023-07-20T00:26:11;4.03;;;1.90;;
69417;SDS011;56610;48.872;2.400;2023-07-20T00:28:36;2.42;;;1.60;;
69417;SDS011;56610;48.872;2.400;2023-07-20T00:31:02;2.78;;;1.52;;
69417;SDS011;56610;48.872;2.400;2023-07-20T00:33:28;3.45;;;1.77;;
69417;SDS011;56610;48.872;2.400;2023-07-20T00:35:53;4.40;;;1.70;;
69417;SDS011;56610;48.872;2.400;2023-07-20T00:38:19;1.85;;;1.50;;
69417;SDS011;56610;48.872;2.400;2023-07-20T00:40:45;3.60;;;1.80;;
69417;SDS011;56610;48.872;2.400;2023-07-20T00:43:11;3.67;;;2.00;;
69417;SDS011;56610;48.872;2.400;2023-07-20T00:45:37;4.35;;;2.00;;
69417;SDS011;56610;48.872;2.400;2023-07-20T00:48:03;3.50;;;1.88;;
69417;SDS011;56610;48.872;2.400;2023-07-20T00:50:30;3.30;;;2.05;;
69417;SDS011;56610;48.872;2.400;2023-07-20T00:52:57;3.88;;;2.13;;
69417;SDS011;56610;48.872;2.400;2023-07-20T00:55:24;3.47;;;2.10;;
69417;SDS011;56610;48.872;2.400;2023-07-20T00:57:50;5.35;;;2.17;;
69417;SDS011;56610;48.872;2.400;2023-07-20T01:00:16;2.92;;;1.50;;
69417;SDS011;56610;48.872;2.400;2023-07-20T01:02:42;3.53;;;1.77;;
69417;SDS011;56610;48.872;2.400;2023-07-20T01:05:08;2.95;;;1.80;;
69417;SDS011;56610;48.872;2.400;2023-07-20T01:07:35;4.05;;;2.10;;
69417;SDS011;56610;48.872;2.400;2023-07-20T01:12:43;3.05;;;1.95;;
69417;SDS011;56610;48.872;2.400;2023-07-20T01:15:16;4.93;;;1.80;;
69417;SDS011;56610;48.872;2.400;2023-07-20T01:17:42;3.67;;;1.83;;
69417;SDS011;56610;48.872;2.400;2023-07-20T01:20:09;4.22;;;2.03;;
69417;SDS011;56610;48.872;2.400;2023-07-20T01:30:59;2.75;;;1.90;;
69417;SDS011;56610;48.872;2.400;2023-07-20T01:33:36;5.05;;;1.95;;
69417;SDS011;56610;48.872;2.400;2023-07-20T01:36:03;4.40;;;1.80;;
69417;SDS011;56610;48.872;2.400;2023-07-20T01:38:30;4.63;;;2.00;;
69417;SDS011;56610;48.872;2.400;2023-07-20T01:40:56;4.70;;;2.15;;
69417;SDS011;56610;48.872;2.400;2023-07-20T01:43:22;3.30;;;1.80;;
69417;SDS011;56610;48.872;2.400;2023-07-20T01:45:48;4.38;;;1.88;;
69417;SDS011;56610;48.872;2.400;2023-07-20T01:48:14;4.35;;;2.13;;
69417;SDS011;56610;48.872;2.400;2023-07-20T01:50:39;4.75;;;1.80;;
69417;SDS011;56610;48.872;2.400;2023-07-20T01:53:05;4.82;;;2.25;;
69417;SDS011;56610;48.872;2.400;2023-07-20T01:55:31;5.60;;;1.90;;
69417;SDS011;56610;48.872;2.400;2023-07-20T01:57:56;3.47;;;2.00;;
69417;SDS011;56610;48.872;2.400;2023-07-20T02:02:50;4.72;;;2.22;;
69417;SDS011;56610;48.872;2.400;2023-07-20T02:05:16;5.35;;;2.15;;
69417;SDS011;56610;48.872;2.400;2023-07-20T02:07:42;2.92;;;1.92;;
69417;SDS011;56610;48.872;2.400;2023-07-20T02:10:08;3.58;;;2.25;;
69417;SDS011;56610;48.872;2.400;2023-07-20T02:12:34;4.13;;;2.10;;
69417;SDS011;56610;48.872;2.400;2023-07-20T02:15:00;5.32;;;2.15;;
69417;SDS011;56610;48.872;2.400;2023-07-20T02:17:26;4.53;;;2.40;;
69417;SDS011;56610;48.872;2.400;2023-07-20T02:19:55;4.63;;;2.20;;
69417;SDS011;56610;48.872;2.400;2023-07-20T02:22:22;3.83;;;2.13;;
69417;SDS011;56610;48.872;2.400;2023-07-20T02:24:48;4.95;;;2.08;;
69417;SDS011;56610;48.872;2.400;2023-07-20T02:27:15;5.38;;;2.10;;
69417;SDS011;56610;48.872;2.400;2023-07-20T02:29:41;3.25;;;2.35;;
69417;SDS011;56610;48.872;2.400;2023-07-20T02:32:07;4.38;;;2.10;;
69417;SDS011;56610;48.872;2.400;2023-07-20T02:34:33;4.18;;;2.30;;
69417;SDS011;56610;48.872;2.400;2023-07-20T02:36:59;3.25;;;2.03;;
69417;SDS011;56610;48.872;2.400;2023-07-20T02:39:27;4.25;;;2.30;;
69417;SDS011;56610;48.872;2.400;2023-07-20T02:41:53;3.43;;;2.03;;
69417;SDS011;56610;48.872;2.400;2023-07-20T02:44:18;3.42;;;1.83;;
69417;SDS011;56610;48.872;2.400;2023-07-20T02:46:44;4.70;;;2.25;;
69417;SDS011;56610;48.872;2.400;2023-07-20T02:49:10;4.90;;;2.45;;
69417;SDS011;56610;48.872;2.400;2023-07-20T02:51:35;4.82;;;2.40;;
69417;SDS011;56610;48.872;2.400;2023-07-20T02:54:01;4.57;;;2.13;;
69417;SDS011;56610;48.872;2.400;2023-07-20T02:56:26;5.65;;;2.13;;
69417;SDS011;56610;48.872;2.400;2023-07-20T02:58:52;4.57;;;2.33;;
69417;SDS011;56610;48.872;2.400;2023-07-20T03:01:18;4.63;;;2.10;;
69417;SDS011;56610;48.872;2.400;2023-07-20T03:03:43;5.18;;;2.70;;
69417;SDS011;56610;48.872;2.400;2023-07-20T03:06:15;5.50;;;2.67;;
69417;SDS011;56610;48.872;2.400;2023-07-20T03:08:42;3.38;;;2.17;;
69417;SDS011;56610;48.872;2.400;2023-07-20T03:11:10;4.82;;;2.30;;
69417;SDS011;56610;48.872;2.400;2023-07-20T03:13:36;3.72;;;2.25;;
69417;SDS011;56610;48.872;2.400;2023-07-20T03:16:01;4.38;;;1.85;;
69417;SDS011;56610;48.872;2.400;2023-07-20T03:18:27;2.95;;;1.88;;
69417;SDS011;56610;48.872;2.400;2023-07-20T03:20:52;2.53;;;2.08;;
69417;SDS011;56610;48.872;2.400;2023-07-20T03:23:18;3.00;;;1.98;;
69417;SDS011;56610;48.872;2.400;2023-07-20T03:25:43;3.40;;;1.67;;
69417;SDS011;56610;48.872;2.400;2023-07-20T03:28:09;4.68;;;2.40;;
69417;SDS011;56610;48.872;2.400;2023-07-20T03:30:34;4.57;;;2.30;;
69417;SDS011;56610;48.872;2.400;2023-07-20T03:33:00;3.58;;;1.98;;
69417;SDS011;56610;48.872;2.400;2023-07-20T03:35:26;4.93;;;2.28;;
69417;SDS011;56610;48.872;2.400;2023-07-20T03:37:51;2.97;;;2.20;;
69417;SDS011;56610;48.872;2.400;2023-07-20T03:40:17;4.43;;;1.80;;
69417;SDS011;56610;48.872;2.400;2023-07-20T03:42:42;3.80;;;1.98;;
69417;SDS011;56610;48.872;2.400;2023-07-20T03:45:08;5.97;;;2.22;;
69417;SDS011;56610;48.872;2.400;2023-07-20T03:47:34;4.75;;;2.40;;
69417;SDS011;56610;48.872;2.400;2023-07-20T03:50:03;3.50;;;1.98;;
69417;SDS011;56610;48.872;2.400;2023-07-20T03:52:30;4.93;;;2.33;;
69417;SDS011;56610;48.872;2.400;2023-07-20T03:54:56;4.72;;;2.22;;
69417;SDS011;56610;48.872;2.400;2023-07-20T03:57:21;3.30;;;2.15;;
69417;SDS011;56610;48.872;2.400;2023-07-20T03:59:47;5.25;;;2.50;;
69417;SDS011;56610;48.872;2.400;2023-07-20T04:02:13;3.72;;;1.95;;
69417;SDS011;56610;48.872;2.400;2023-07-20T04:04:39;3.15;;;1.92;;
69417;SDS011;56610;48.872;2.400;2023-07-20T04:07:04;3.75;;;2.05;;
69417;SDS011;56610;48.872;2.400;2023-07-20T04:09:31;6.85;;;2.35;;
69417;SDS011;56610;48.872;2.400;2023-07-20T04:11:57;4.80;;;2.20;;
69417;SDS011;56610;48.872;2.400;2023-07-20T04:14:22;4.88;;;2.08;;
69417;SDS011;56610;48.872;2.400;2023-07-20T04:16:48;6.38;;;2.55;;
69417;SDS011;56610;48.872;2.400;2023-07-20T04:19:13;3.30;;;2.30;;
69417;SDS011;56610;48.872;2.400;2023-07-20T04:21:40;5.28;;;2.40;;
69417;SDS011;56610;48.872;2.400;2023-07-20T04:24:08;4.25;;;2.15;;
69417;SDS011;56610;48.872;2.400;2023-07-20T04:26:34;5.53;;;2.45;;
69417;SDS011;56610;48.872;2.400;2023-07-20T04:29:00;4.82;;;2.67;;
69417;SDS011;56610;48.872;2.400;2023-07-20T04:31:26;6.57;;;2.55;;
69417;SDS011;56610;48.872;2.400;2023-07-20T04:33:51;6.05;;;2.40;;
69417;SDS011;56610;48.872;2.400;2023-07-20T04:36:17;5.47;;;2.58;;
69417;SDS011;56610;48.872;2.400;2023-07-20T04:38:44;5.27;;;2.50;;
69417;SDS011;56610;48.872;2.400;2023-07-20T04:41:11;4.78;;;2.53;;
69417;SDS011;56610;48.872;2.400;2023-07-20T04:43:40;7.95;;;2.80;;
69417;SDS011;56610;48.872;2.400;2023-07-20T04:46:12;5.50;;;2.67;;
69417;SDS011;56610;48.872;2.400;2023-07-20T04:48:38;5.30;;;2.70;;
69417;SDS011;56610;48.872;2.400;2023-07-20T04:51:05;4.82;;;2.40;;
69417;SDS011;56610;48.872;2.400;2023-07-20T04:53:31;6.05;;;2.30;;
69417;SDS011;56610;48.872;2.400;2023-07-20T04:55:57;5.57;;;2.85;;
69417;SDS011;56610;48.872;2.400;2023-07-20T04:58:22;6.32;;;2.80;;
69417;SDS011;56610;48.872;2.400;2023-07-20T05:00:48;6.60;;;2.88;;
69417;SDS011;56610;48.872;2.400;2023-07-20T05:03:14;4.68;;;2.63;;
69417;SDS011;56610;48.872;2.400;2023-07-20T05:05:40;6.45;;;2.53;;
69417;SDS011;56610;48.872;2.400;2023-07-20T05:08:06;5.72;;;3.13;;
69417;SDS011;56610;48.872;2.400;2023-07-20T05:10:31;7.05;;;2.97;;
69417;SDS011;56610;48.872;2.400;2023-07-20T05:12:57;5.10;;;2.90;;
69417;SDS011;56610;48.872;2.400;2023-07-20T05:15:23;4.85;;;2.58;;
69417;SDS011;56610;48.872;2.400;2023-07-20T05:17:49;4.07;;;2.50;;
69417;SDS011;56610;48.872;2.400;2023-07-20T05:20:15;5.30;;;3.03;;
69417;SDS011;56610;48.872;2.400;2023-07-20T05:22:40;6.40;;;2.60;;
69417;SDS011;56610;48.872;2.400;2023-07-20T05:25:07;5.60;;;2.78;;
69417;SDS011;56610;48.872;2.400;2023-07-20T05:27:35;6.25;;;2.80;;
69417;SDS011;56610;48.872;2.400;2023-07-20T05:30:02;4.38;;;2.63;;
69417;SDS011;56610;48.872;2.400;2023-07-20T05:32:28;6.20;;;2.90;;
69417;SDS011;56610;48.872;2.400;2023-07-20T05:34:54;6.00;;;2.97;;
69417;SDS011;56610;48.872;2.400;2023-07-20T05:37:20;7.05;;;3.13;;
69417;SDS011;56610;48.872;2.400;2023-07-20T05:39:46;7.07;;;3.10;;
69417;SDS011;56610;48.872;2.400;2023-07-20T05:42:11;4.75;;;2.60;;
69417;SDS011;56610;48.872;2.400;2023-07-20T05:44:37;5.78;;;2.78;;
69417;SDS011;56610;48.872;2.400;2023-07-20T05:47:03;4.03;;;2.65;;
69417;SDS011;56610;48.872;2.400;2023-07-20T05:49:29;6.18;;;2.60;;
69417;SDS011;56610;48.872;2.400;2023-07-20T05:51:55;4.20;;;2.33;;
69417;SDS011;56610;48.872;2.400;2023-07-20T05:54:21;5.40;;;2.65;;
69417;SDS011;56610;48.872;2.400;2023-07-20T05:56:49;3.75;;;2.40;;
69417;SDS011;56610;48.872;2.400;2023-07-20T05:59:14;3.53;;;2.47;;
69417;SDS011;56610;48.872;2.400;2023-07-20T06:01:40;6.55;;;2.47;;
69417;SDS011;56610;48.872;2.400;2023-07-20T06:04:05;5.63;;;2.72;;
69417;SDS011;56610;48.872;2.400;2023-07-20T06:06:31;6.75;;;2.42;;
69417;SDS011;56610;48.872;2.400;2023-07-20T06:08:56;5.93;;;2.50;;
69417;SDS011;56610;48.872;2.400;2023-07-20T06:11:22;4.78;;;2.20;;
69417;SDS011;56610;48.872;2.400;2023-07-20T06:13:47;4.28;;;2.55;;
69417;SDS011;56610;48.872;2.400;2023-07-20T06:16:13;3.47;;;2.25;;
69417;SDS011;56610;48.872;2.400;2023-07-20T06:18:39;4.03;;;2.38;;
69417;SDS011;56610;48.872;2.400;2023-07-20T06:21:04;5.63;;;2.70;;
69417;SDS011;56610;48.872;2.400;2023-07-20T06:23:30;7.22;;;2.88;;
69417;SDS011;56610;48.872;2.400;2023-07-20T06:25:55;4.20;;;2.28;;
69417;SDS011;56610;48.872;2.400;2023-07-20T06:28:21;4.82;;;2.67;;
69417;SDS011;56610;48.872;2.400;2023-07-20T06:30:47;5.72;;;2.50;;
69417;SDS011;56610;48.872;2.400;2023-07-20T06:33:12;7.05;;;2.60;;
69417;SDS011;56610;48.872;2.400;2023-07-20T06:35:41;4.68;;;2.53;;
69417;SDS011;56610;48.872;2.400;2023-07-20T06:38:08;3.22;;;2.30;;
69417;SDS011;56610;48.872;2.400;2023-07-20T06:40:33;5.03;;;2.28;;
69417;SDS011;56610;48.872;2.400;2023-07-20T06:42:59;6.25;;;2.80;;
69417;SDS011;56610;48.872;2.400;2023-07-20T06:45:24;6.93;;;2.70;;
69417;SDS011;56610;48.872;2.400;2023-07-20T06:47:50;4.55;;;3.00;;
69417;SDS011;56610;48.872;2.400;2023-07-20T06:50:16;3.60;;;2.63;;
69417;SDS011;56610;48.872;2.400;2023-07-20T06:52:41;5.10;;;2.22;;
69417;SDS011;56610;48.872;2.400;2023-07-20T06:55:07;6.50;;;2.97;;
69417;SDS011;56610;48.872;2.400;2023-07-20T06:57:33;5.13;;;2.70;;
69417;SDS011;56610;48.872;2.400;2023-07-20T06:59:59;9.80;;;3.10;;
69417;SDS011;56610;48.872;2.400;2023-07-20T07:02:24;6.20;;;2.60;;
69417;SDS011;56610;48.872;2.400;2023-07-20T07:04:50;4.85;;;2.90;;
69417;SDS011;56610;48.872;2.400;2023-07-20T07:07:15;4.60;;;2.50;;
69417;SDS011;56610;48.872;2.400;2023-07-20T07:09:41;5.75;;;2.97;;
69417;SDS011;56610;48.872;2.400;2023-07-20T07:12:07;5.70;;;2.88;;
69417;SDS011;56610;48.872;2.400;2023-07-20T07:14:33;4.28;;;2.90;;
69417;SDS011;56610;48.872;2.400;2023-07-20T07:16:59;4.45;;;2.80;;
69417;SDS011;56610;48.872;2.400;2023-07-20T07:19:25;4.55;;;3.03;;
69417;SDS011;56610;48.872;2.400;2023-07-20T07:21:51;9.35;;;3.03;;
69417;SDS011;56610;48.872;2.400;2023-07-20T07:24:16;3.42;;;2.50;;
69417;SDS011;56610;48.872;2.400;2023-07-20T07:26:42;7.00;;;2.80;;
69417;SDS011;56610;48.872;2.400;2023-07-20T07:29:08;5.50;;;3.05;;
69417;SDS011;56610;48.872;2.400;2023-07-20T07:31:34;7.93;;;3.53;;
69417;SDS011;56610;48.872;2.400;2023-07-20T07:34:01;5.05;;;3.30;;
69417;SDS011;56610;48.872;2.400;2023-07-20T07:36:27;6.07;;;2.88;;
69417;SDS011;56610;48.872;2.400;2023-07-20T07:38:52;7.15;;;3.08;;
69417;SDS011;56610;48.872;2.400;2023-07-20T07:41:18;5.90;;;3.17;;
69417;SDS011;56610;48.872;2.400;2023-07-20T07:43:44;6.22;;;3.30;;
69417;SDS011;56610;48.872;2.400;2023-07-20T07:46:09;6.70;;;2.70;;
69417;SDS011;56610;48.872;2.400;2023-07-20T07:48:35;4.68;;;3.00;;
69417;SDS011;56610;48.872;2.400;2023-07-20T07:51:00;7.78;;;3.20;;
69417;SDS011;56610;48.872;2.400;2023-07-20T07:53:26;5.90;;;2.85;;
69417;SDS011;56610;48.872;2.400;2023-07-20T07:55:52;6.15;;;2.67;;
69417;SDS011;56610;48.872;2.400;2023-07-20T07:58:18;6.60;;;2.35;;
69417;SDS011;56610;48.872;2.400;2023-07-20T08:00:43;4.75;;;2.40;;
69417;SDS011;56610;48.872;2.400;2023-07-20T08:03:09;8.50;;;3.03;;
69417;SDS011;56610;48.872;2.400;2023-07-20T08:05:35;5.95;;;3.28;;
69417;SDS011;56610;48.872;2.400;2023-07-20T08:08:02;5.70;;;3.00;;
69417;SDS011;56610;48.872;2.400;2023-07-20T08:10:28;7.15;;;3.45;;
69417;SDS011;56610;48.872;2.400;2023-07-20T08:12:54;5.10;;;2.80;;
69417;SDS011;56610;48.872;2.400;2023-07-20T08:15:20;8.63;;;2.78;;
69417;SDS011;56610;48.872;2.400;2023-07-20T08:17:46;7.45;;;3.28;;
69417;SDS011;56610;48.872;2.400;2023-07-20T08:20:13;6.30;;;3.60;;
69417;SDS011;56610;48.872;2.400;2023-07-20T08:22:39;6.78;;;3.03;;
69417;SDS011;56610;48.872;2.400;2023-07-20T08:25:07;7.15;;;2.70;;
69417;SDS011;56610;48.872;2.400;2023-07-20T08:27:34;6.15;;;3.15;;
69417;SDS011;56610;48.872;2.400;2023-07-20T08:30:00;5.72;;;3.22;;
69417;SDS011;56610;48.872;2.400;2023-07-20T08:32:25;7.18;;;3.58;;
69417;SDS011;56610;48.872;2.400;2023-07-20T08:34:51;7.05;;;3.30;;
69417;SDS011;56610;48.872;2.400;2023-07-20T08:37:17;4.28;;;2.50;;
69417;SDS011;56610;48.872;2.400;2023-07-20T08:39:43;5.00;;;2.40;;
69417;SDS011;56610;48.872;2.400;2023-07-20T08:42:09;5.38;;;3.10;;
69417;SDS011;56610;48.872;2.400;2023-07-20T08:44:35;4.88;;;2.85;;
69417;SDS011;56610;48.872;2.400;2023-07-20T08:49:30;6.05;;;3.00;;
69417;SDS011;56610;48.872;2.400;2023-07-20T08:51:57;4.47;;;2.45;;
69417;SDS011;56610;48.872;2.400;2023-07-20T08:54:23;3.35;;;1.70;;
69417;SDS011;56610;48.872;2.400;2023-07-20T08:56:52;2.50;;;1.80;;
69417;SDS011;56610;48.872;2.400;2023-07-20T08:59:20;2.67;;;1.58;;
69417;SDS011;56610;48.872;2.400;2023-07-20T09:01:49;5.65;;;2.80;;
69417;SDS011;56610;48.872;2.400;2023-07-20T09:06:43;5.82;;;2.38;;
69417;SDS011;56610;48.872;2.400;2023-07-20T09:09:08;4.07;;;2.28;;
69417;SDS011;56610;48.872;2.400;2023-07-20T09:11:34;5.20;;;2.30;;
69417;SDS011;56610;48.872;2.400;2023-07-20T09:14:07;3.35;;;1.77;;
69417;SDS011;56610;48.872;2.400;2023-07-20T09:16:53;3.20;;;1.30;;
69417;SDS011;56610;48.872;2.400;2023-07-20T09:19:20;3.70;;;1.70;;
69417;SDS011;56610;48.872;2.400;2023-07-20T09:21:46;1.98;;;1.23;;
69417;SDS011;56610;48.872;2.400;2023-07-20T09:24:16;4.47;;;2.38;;
69417;SDS011;56610;48.872;2.400;2023-07-20T09:26:44;4.95;;;2.17;;
69417;SDS011;56610;48.872;2.400;2023-07-20T09:29:13;3.58;;;2.00;;
69417;SDS011;56610;48.872;2.400;2023-07-20T09:31:39;2.65;;;1.70;;
69417;SDS011;56610;48.872;2.400;2023-07-20T09:34:05;3.40;;;1.75;;
69417;SDS011;56610;48.872;2.400;2023-07-20T09:36:35;4.25;;;1.63;;
69417;SDS011;56610;48.872;2.400;2023-07-20T09:39:02;2.55;;;1.33;;
69417;SDS011;56610;48.872;2.400;2023-07-20T09:41:29;1.67;;;1.10;;
69417;SDS011;56610;48.872;2.400;2023-07-20T09:43:55;1.58;;;1.10;;
69417;SDS011;56610;48.872;2.400;2023-07-20T09:46:20;1.55;;;1.20;;
69417;SDS011;56610;48.872;2.400;2023-07-20T09:48:53;1.98;;;1.10;;
69417;SDS011;56610;48.872;2.400;2023-07-20T09:51:21;2.95;;;1.20;;
69417;SDS011;56610;48.872;2.400;2023-07-20T09:53:48;2.78;;;1.30;;
69417;SDS011;56610;48.872;2.400;2023-07-20T09:56:14;3.03;;;1.27;;
69417;SDS011;56610;48.872;2.400;2023-07-20T09:58:43;3.00;;;1.50;;
69417;SDS011;56610;48.872;2.400;2023-07-20T10:03:36;2.97;;;1.35;;
69417;SDS011;56610;48.872;2.400;2023-07-20T10:06:05;2.38;;;1.58;;
69417;SDS011;56610;48.872;2.400;2023-07-20T10:08:34;1.73;;;1.40;;
69417;SDS011;56610;48.872;2.400;2023-07-20T10:11:05;2.25;;;1.50;;
69417;SDS011;56610;48.872;2.400;2023-07-20T10:13:33;2.05;;;1.20;;
69417;SDS011;56610;48.872;2.400;2023-07-20T10:16:03;2.67;;;1.30;;
69417;SDS011;56610;48.872;2.400;2023-07-20T10:19:07;1.80;;;1.15;;
69417;SDS011;56610;48.872;2.400;2023-07-20T10:21:54;3.20;;;1.38;;
69417;SDS011;56610;48.872;2.400;2023-07-20T10:24:26;2.38;;;1.50;;
69417;SDS011;56610;48.872;2.400;2023-07-20T10:26:53;2.03;;;1.15;;
69417;SDS011;56610;48.872;2.400;2023-07-20T10:29:23;2.92;;;1.15;;
69417;SDS011;56610;48.872;2.400;2023-07-20T10:31:49;2.78;;;1.17;;
69417;SDS011;56610;48.872;2.400;2023-07-20T10:34:16;1.00;;;0.90;;
69417;SDS011;56610;48.872;2.400;2023-07-20T10:36:45;2.78;;;1.27;;
69417;SDS011;56610;48.872;2.400;2023-07-20T10:39:32;2.90;;;1.02;;
69417;SDS011;56610;48.872;2.400;2023-07-20T10:42:08;2.17;;;1.25;;
69417;SDS011;56610;48.872;2.400;2023-07-20T10:44:38;3.60;;;1.23;;
69417;SDS011;56610;48.872;2.400;2023-07-20T10:47:08;4.53;;;1.10;;
69417;SDS011;56610;48.872;2.400;2023-07-20T10:49:35;1.90;;;1.10;;
69417;SDS011;56610;48.872;2.400;2023-07-20T10:52:37;3.58;;;1.38;;
69417;SDS011;56610;48.872;2.400;2023-07-20T10:55:13;2.58;;;1.15;;
69417;SDS011;56610;48.872;2.400;2023-07-20T10:57:40;2.35;;;1.42;;
69417;SDS011;56610;48.872;2.400;2023-07-20T11:00:09;2.55;;;1.45;;
69417;SDS011;56610;48.872;2.400;2023-07-20T11:02:44;1.95;;;1.10;;
69417;SDS011;56610;48.872;2.400;2023-07-20T11:07:57;1.42;;;1.10;;
69417;SDS011;56610;48.872;2.400;2023-07-20T11:10:22;2.42;;;0.90;;
69417;SDS011;56610;48.872;2.400;2023-07-20T11:13:22;2.95;;;1.40;;
69417;SDS011;56610;48.872;2.400;2023-07-20T11:15:46;2.20;;;1.27;;
69417;SDS011;56610;48.872;2.400;2023-07-20T11:18:21;1.92;;;1.38;;
69417;SDS011;56610;48.872;2.400;2023-07-20T11:20:50;3.13;;;1.48;;
69417;SDS011;56610;48.872;2.400;2023-07-20T11:23:16;2.72;;;1.88;;
69417;SDS011;56610;48.872;2.400;2023-07-20T11:25:42;2.45;;;1.55;;
69417;SDS011;56610;48.872;2.400;2023-07-20T11:28:08;3.10;;;1.40;;
69417;SDS011;56610;48.872;2.400;2023-07-20T11:30:35;2.00;;;1.10;;
69417;SDS011;56610;48.872;2.400;2023-07-20T11:33:02;1.63;;;1.20;;
69417;SDS011;56610;48.872;2.400;2023-07-20T11:35:28;1.42;;;1.00;;
69417;SDS011;56610;48.872;2.400;2023-07-20T11:37:54;1.35;;;1.00;;
69417;SDS011;56610;48.872;2.400;2023-07-20T11:40:20;1.88;;;1.38;;
69417;SDS011;56610;48.872;2.400;2023-07-20T11:42:47;2.55;;;1.10;;
69417;SDS011;56610;48.872;2.400;2023-07-20T11:45:15;2.80;;;1.30;;
69417;SDS011;56610;48.872;2.400;2023-07-20T11:47:44;1.42;;;1.10;;
69417;SDS011;56610;48.872;2.400;2023-07-20T11:50:10;1.77;;;1.20;;
69417;SDS011;56610;48.872;2.400;2023-07-20T11:52:38;2.33;;;1.00;;
69417;SDS011;56610;48.872;2.400;2023-07-20T11:55:05;2.45;;;1.10;;
69417;SDS011;56610;48.872;2.400;2023-07-20T11:57:32;1.25;;;1.00;;
69417;SDS011;56610;48.872;2.400;2023-07-20T12:00:00;2.05;;;1.00;;
69417;SDS011;56610;48.872;2.400;2023-07-20T12:02:30;1.38;;;0.90;;
69417;SDS011;56610;48.872;2.400;2023-07-20T12:04:56;2.10;;;1.10;;
69417;SDS011;56610;48.872;2.400;2023-07-20T12:07:22;1.38;;;0.90;;
69417;SDS011;56610;48.872;2.400;2023-07-20T12:10:04;1.05;;;0.95;;
69417;SDS011;56610;48.872;2.400;2023-07-20T12:12:39;1.20;;;0.90;;
69417;SDS011;56610;48.872;2.400;2023-07-20T12:15:25;1.42;;;1.00;;
69417;SDS011;56610;48.872;2.400;2023-07-20T12:17:52;1.15;;;0.85;;
69417;SDS011;56610;48.872;2.400;2023-07-20T12:20:29;0.95;;;0.80;;
69417;SDS011;56610;48.872;2.400;2023-07-20T12:23:02;1.80;;;1.08;;
69417;SDS011;56610;48.872;2.400;2023-07-20T12:25:33;1.90;;;0.70;;
69417;SDS011;56610;48.872;2.400;2023-07-20T12:28:09;3.13;;;0.82;;
69417;SDS011;56610;48.872;2.400;2023-07-20T12:30:39;1.73;;;0.95;;
69417;SDS011;56610;48.872;2.400;2023-07-20T12:33:06;1.08;;;0.98;;
69417;SDS011;56610;48.872;2.400;2023-07-20T12:35:32;2.88;;;0.93;;
69417;SDS011;56610;48.872;2.400;2023-07-20T12:37:59;2.47;;;0.90;;
69417;SDS011;56610;48.872;2.400;2023-07-20T12:40:25;1.27;;;0.88;;
69417;SDS011;56610;48.872;2.400;2023-07-20T12:42:50;1.70;;;0.90;;
69417;SDS011;56610;48.872;2.400;2023-07-20T12:45:16;1.00;;;0.90;;
69417;SDS011;56610;48.872;2.400;2023-07-20T12:47:42;1.67;;;0.90;;
69417;SDS011;56610;48.872;2.400;2023-07-20T12:50:09;2.13;;;0.90;;
69417;SDS011;56610;48.872;2.400;2023-07-20T12:52:36;1.33;;;0.90;;
69417;SDS011;56610;48.872;2.400;2023-07-20T12:55:03;3.40;;;0.73;;
69417;SDS011;56610;48.872;2.400;2023-07-20T12:57:33;1.23;;;0.73;;
69417;SDS011;56610;48.872;2.400;2023-07-20T13:00:00;0.95;;;0.70;;
69417;SDS011;56610;48.872;2.400;2023-07-20T13:02:26;2.15;;;0.80;;
69417;SDS011;56610;48.872;2.400;2023-07-20T13:04:52;2.85;;;0.95;;
69417;SDS011;56610;48.872;2.400;2023-07-20T13:07:18;1.48;;;1.05;;
69417;SDS011;56610;48.872;2.400;2023-07-20T13:09:58;0.93;;;0.70;;
69417;SDS011;56610;48.872;2.400;2023-07-20T13:12:25;1.25;;;0.68;;
69417;SDS011;56610;48.872;2.400;2023-07-20T13:14:52;0.80;;;0.73;;
69417;SDS011;56610;48.872;2.400;2023-07-20T13:17:18;1.85;;;0.80;;
69417;SDS011;56610;48.872;2.400;2023-07-20T13:19:43;0.77;;;0.70;;
69417;SDS011;56610;48.872;2.400;2023-07-20T13:22:09;2.45;;;0.95;;
69417;SDS011;56610;48.872;2.400;2023-07-20T13:24:36;1.77;;;0.93;;
69417;SDS011;56610;48.872;2.400;2023-07-20T13:27:01;1.10;;;1.10;;
69417;SDS011;56610;48.872;2.400;2023-07-20T13:29:27;1.95;;;0.80;;
69417;SDS011;56610;48.872;2.400;2023-07-20T13:31:53;1.30;;;0.90;;
69417;SDS011;56610;48.872;2.400;2023-07-20T13:34:18;2.20;;;0.98;;
69417;SDS011;56610;48.872;2.400;2023-07-20T13:36:44;1.02;;;0.90;;
69417;SDS011;56610;48.872;2.400;2023-07-20T13:39:09;0.85;;;0.70;;
69417;SDS011;56610;48.872;2.400;2023-07-20T13:41:35;0.98;;;0.60;;
69417;SDS011;56610;48.872;2.400;2023-07-20T13:44:01;0.70;;;0.70;;
69417;SDS011;56610;48.872;2.400;2023-07-20T13:46:26;0.80;;;0.80;;
69417;SDS011;56610;48.872;2.400;2023-07-20T13:48:52;1.20;;;0.70;;
69417;SDS011;56610;48.872;2.400;2023-07-20T13:51:17;0.57;;;0.50;;
69417;SDS011;56610;48.872;2.400;2023-07-20T13:53:45;1.95;;;0.80;;
69417;SDS011;56610;48.872;2.400;2023-07-20T13:56:11;1.27;;;0.75;;
69417;SDS011;56610;48.872;2.400;2023-07-20T13:58:36;1.10;;;0.80;;
69417;SDS011;56610;48.872;2.400;2023-07-20T14:01:02;0.50;;;0.50;;
69417;SDS011;56610;48.872;2.400;2023-07-20T14:03:28;1.85;;;0.90;;
69417;SDS011;56610;48.872;2.400;2023-07-20T14:05:53;1.50;;;0.88;;
69417;SDS011;56610;48.872;2.400;2023-07-20T14:08:19;3.47;;;1.05;;
69417;SDS011;56610;48.872;2.400;2023-07-20T14:10:45;2.28;;;0.80;;
69417;SDS011;56610;48.872;2.400;2023-07-20T14:13:11;1.20;;;0.70;;
69417;SDS011;56610;48.872;2.400;2023-07-20T14:15:37;1.33;;;0.80;;
69417;SDS011;56610;48.872;2.400;2023-07-20T14:18:03;1.55;;;0.80;;
69417;SDS011;56610;48.872;2.400;2023-07-20T14:20:29;1.92;;;1.00;;
69417;SDS011;56610;48.872;2.400;2023-07-20T14:22:55;0.77;;;0.68;;
69417;SDS011;56610;48.872;2.400;2023-07-20T14:25:20;1.35;;;0.70;;
69417;SDS011;56610;48.872;2.400;2023-07-20T14:27:46;1.20;;;0.80;;
69417;SDS011;56610;48.872;2.400;2023-07-20T14:30:11;2.67;;;0.95;;
69417;SDS011;56610;48.872;2.400;2023-07-20T14:32:38;1.75;;;0.90;;
69417;SDS011;56610;48.872;2.400;2023-07-20T14:35:04;0.98;;;0.80;;
69417;SDS011;56610;48.872;2.400;2023-07-20T14:37:30;1.92;;;0.70;;
69417;SDS011;56610;48.872;2.400;2023-07-20T14:39:55;1.23;;;0.98;;
69417;SDS011;56610;48.872;2.400;2023-07-20T14:42:21;1.38;;;0.75;;
69417;SDS011;56610;48.872;2.400;2023-07-20T14:44:46;1.85;;;0.90;;
69417;SDS011;56610;48.872;2.400;2023-07-20T14:47:12;2.05;;;0.90;;
69417;SDS011;56610;48.872;2.400;2023-07-20T14:49:38;1.60;;;0.88;;
69417;SDS011;56610;48.872;2.400;2023-07-20T14:52:03;1.13;;;0.65;;
69417;SDS011;56610;48.872;2.400;2023-07-20T14:54:29;2.65;;;0.88;;
69417;SDS011;56610;48.872;2.400;2023-07-20T14:56:55;1.30;;;0.73;;
69417;SDS011;56610;48.872;2.400;2023-07-20T14:59:21;0.90;;;0.70;;
69417;SDS011;56610;48.872;2.400;2023-07-20T15:01:47;1.35;;;0.98;;
69417;SDS011;56610;48.872;2.400;2023-07-20T15:04:16;2.67;;;0.82;;
69417;SDS011;56610;48.872;2.400;2023-07-20T15:06:41;1.58;;;0.75;;
69417;SDS011;56610;48.872;2.400;2023-07-20T15:09:07;1.27;;;0.90;;
69417;SDS011;56610;48.872;2.400;2023-07-20T15:11:34;1.02;;;0.80;;